createdAt,value
2023-01-29T00:04:37.873Z,0.21
2023-01-29T00:09:40.345Z,0.23
2023-01-29T00:14:42.469Z,0.29
2023-01-29T00:19:44.486Z,0.46
2023-01-29T00:24:46.747Z,0.56
2023-01-29T00:30:09.041Z,0.42
2023-01-29T00:35:12.222Z,0.48
2023-01-29T00:40:14.669Z,0.26
2023-01-29T00:45:17.343Z,0.51
2023-01-29T00:50:21.276Z,0.45
2023-01-29T00:55:42.444Z,0.13
2023-01-29T01:00:44.668Z,0.32
2023-01-29T01:05:46.935Z,0.31
2023-01-29T01:10:59.503Z,0.27
2023-01-29T01:16:01.987Z,0.32
2023-01-29T01:21:04.356Z,0.40
2023-01-29T01:26:09.854Z,0.53
2023-01-29T01:31:14.546Z,0.50
2023-01-29T01:36:17.381Z,0.24
2023-01-29T01:41:22.797Z,0.46
2023-01-29T01:46:28.644Z,0.23
2023-01-29T01:51:33.929Z,0.26
2023-01-29T01:56:41.963Z,0.35
2023-01-29T02:01:50.361Z,0.35
2023-01-29T02:07:13.141Z,0.26
2023-01-29T02:12:17.312Z,0.41
2023-01-29T02:17:20.914Z,0.16
2023-01-29T02:22:29.528Z,0.45
2023-01-29T02:27:42.111Z,0.18
2023-01-29T02:33:02.593Z,0.05
2023-01-29T02:38:10.889Z,0.14
2023-01-29T02:43:28.401Z,0.13
2023-01-29T02:48:44.899Z,0.21
2023-01-29T02:53:56.625Z,0.15
2023-01-29T02:59:06.023Z,0.12
2023-01-29T03:04:17.255Z,0.16
2023-01-29T03:09:30.507Z,0.33
2023-01-29T03:14:59.221Z,0.03
2023-01-29T03:20:07.673Z,-0.05
2023-01-29T03:25:30.046Z,0.16
2023-01-29T03:30:55.477Z,0.18
2023-01-29T03:36:17.995Z,0.31
2023-01-29T03:41:33.367Z,0.19
2023-01-29T03:46:45.344Z,0.15
2023-01-29T03:52:08.485Z,0.19
2023-01-29T03:57:29.060Z,0.20
2023-01-29T04:02:39.927Z,0.24
2023-01-29T04:07:46.887Z,0.17
2023-01-29T04:13:01.407Z,-0.01
2023-01-29T04:18:05.403Z,0.19
2023-01-29T04:23:39.723Z,0.06
2023-01-29T04:29:11.291Z,0.14
2023-01-29T04:34:40.672Z,0.15
2023-01-29T04:40:04.632Z,0.06
2023-01-29T04:45:18.506Z,0.25
2023-01-29T04:50:49.667Z,0.25
2023-01-29T04:55:55.240Z,0.23
2023-01-29T05:01:01.302Z,-0.01
2023-01-29T05:06:05.511Z,0.32
2023-01-29T05:11:08.070Z,0.21
2023-01-29T05:16:19.721Z,0.18
2023-01-29T05:21:23.675Z,0.19
2023-01-29T05:26:44.421Z,0.28
2023-01-29T05:31:46.891Z,0.18
2023-01-29T05:36:49.068Z,0.21
2023-01-29T05:41:51.889Z,0.34
2023-01-29T05:46:54.108Z,0.26
2023-01-29T05:51:56.540Z,0.29
2023-01-29T05:56:58.668Z,0.25
2023-01-29T06:02:00.882Z,0.13
2023-01-29T06:07:03.790Z,0.25
2023-01-29T06:12:06.578Z,0.33
2023-01-29T06:17:08.806Z,0.27
2023-01-29T06:22:11.199Z,0.30
2023-01-29T06:27:13.460Z,0.27
2023-01-29T06:32:15.912Z,0.43
2023-01-29T06:37:18.263Z,0.37
2023-01-29T06:42:20.876Z,0.39
2023-01-29T06:47:23.943Z,0.61
2023-01-29T06:52:29.144Z,0.64
2023-01-29T06:57:31.451Z,0.73
2023-01-29T07:02:33.805Z,0.59
2023-01-29T07:07:37.162Z,0.67
2023-01-29T07:12:39.354Z,0.82
2023-01-29T07:17:41.527Z,0.71
2023-01-29T07:22:43.697Z,0.62
2023-01-29T07:27:45.977Z,0.68
2023-01-29T07:32:48.262Z,0.71
2023-01-29T07:37:51.463Z,0.59
2023-01-29T07:42:59.344Z,0.92
2023-01-29T07:48:05.185Z,0.75
2023-01-29T07:53:07.942Z,0.89
2023-01-29T07:58:10.259Z,0.70
2023-01-29T08:03:18.065Z,0.80
2023-01-29T08:08:20.282Z,0.87
2023-01-29T08:13:22.538Z,0.88
2023-01-29T08:18:24.801Z,0.87
2023-01-29T08:23:27.321Z,0.63
2023-01-29T08:28:29.525Z,0.79
2023-01-29T08:33:38.992Z,1.18
2023-01-29T08:38:42.987Z,1.32
2023-01-29T08:43:46.737Z,1.15
2023-01-29T08:48:48.911Z,1.13
2023-01-29T08:53:51.694Z,1.27
2023-01-29T08:58:53.888Z,1.08
2023-01-29T09:03:59.004Z,1.12
2023-01-29T09:09:01.475Z,1.42
2023-01-29T09:14:03.819Z,0.89
2023-01-29T09:19:05.909Z,1.19
2023-01-29T09:24:08.108Z,1.14
2023-01-29T09:29:11.358Z,1.48
2023-01-29T09:34:13.619Z,1.34
2023-01-29T09:39:16.126Z,1.47
2023-01-29T09:45:05.806Z,1.40
2023-01-29T09:50:20.399Z,1.24
2023-01-29T09:55:30.394Z,1.44
2023-01-29T10:00:48.796Z,1.57
2023-01-29T10:06:09.655Z,1.68
2023-01-29T10:11:33.321Z,1.51
2023-01-29T10:17:14.418Z,1.63
2023-01-29T10:22:40.085Z,1.47
2023-01-29T10:27:57.003Z,1.57
2023-01-29T10:33:03.954Z,1.03
2023-01-29T10:38:15.570Z,1.41
2023-01-29T10:43:27.351Z,1.33
2023-01-29T10:48:41.494Z,1.33
2023-01-29T10:54:01.584Z,1.63
2023-01-29T10:59:32.578Z,1.63
2023-01-29T11:04:36.897Z,1.19
2023-01-29T11:09:58.157Z,1.24
2023-01-29T11:15:27.024Z,1.49
2023-01-29T11:20:31.492Z,1.59
2023-01-29T11:25:34.003Z,1.58
2023-01-29T11:30:39.269Z,1.94
2023-01-29T11:35:41.460Z,1.55
2023-01-29T11:40:44.898Z,1.87
2023-01-29T11:45:51.871Z,1.60
2023-01-29T11:51:03.518Z,1.80
2023-01-29T11:56:22.416Z,1.87
2023-01-29T12:01:35.418Z,1.67
2023-01-29T12:06:44.590Z,1.68
2023-01-29T12:11:47.331Z,1.90
2023-01-29T12:17:02.757Z,1.76
2023-01-29T12:22:15.717Z,1.75
2023-01-29T12:27:22.531Z,1.69
2023-01-29T12:32:50.155Z,1.38
2023-01-29T12:37:58.690Z,1.54
2023-01-29T12:43:07.629Z,1.39
2023-01-29T12:48:14.846Z,1.62
2023-01-29T12:53:35.904Z,1.58
2023-01-29T12:58:45.708Z,1.51
2023-01-29T13:03:48.041Z,1.69
2023-01-29T13:08:54.207Z,1.85
2023-01-29T13:14:04.569Z,2.36
2023-01-29T13:19:33.423Z,2.12
2023-01-29T13:24:47.887Z,2.03
2023-01-29T13:29:53.697Z,1.88
2023-01-29T13:34:59.086Z,1.59
2023-01-29T13:40:07.592Z,1.58
2023-01-29T13:45:23.086Z,1.53
2023-01-29T13:50:46.314Z,1.50
2023-01-29T13:55:48.722Z,2.62
2023-01-29T14:00:51.446Z,2.62
2023-01-29T14:06:01.503Z,2.96
2023-01-29T14:11:16.149Z,2.69
2023-01-29T14:16:18.335Z,2.71
2023-01-29T14:21:20.426Z,2.58
2023-01-29T14:26:22.725Z,2.16
2023-01-29T14:31:43.233Z,1.71
2023-01-29T14:36:47.567Z,1.83
2023-01-29T14:41:52.274Z,1.52
2023-01-29T14:46:54.541Z,1.33
2023-01-29T14:52:00.088Z,1.27
2023-01-29T14:57:06.918Z,1.31
2023-01-29T15:02:37.342Z,1.06
2023-01-29T15:07:47.872Z,1.36
2023-01-29T15:13:18.438Z,1.48
2023-01-29T15:18:40.239Z,1.57
2023-01-29T15:23:48.351Z,1.41
2023-01-29T15:29:04.551Z,1.33
2023-01-29T15:34:08.598Z,1.55
2023-01-29T15:39:14.319Z,1.73
2023-01-29T15:44:24.220Z,1.10
2023-01-29T15:49:35.631Z,1.25
2023-01-29T15:54:39.569Z,1.19
2023-01-29T15:59:44.994Z,1.51
2023-01-29T16:04:47.722Z,1.25
2023-01-29T16:09:52.195Z,1.30
2023-01-29T16:14:55.982Z,1.32
2023-01-29T16:20:00.490Z,1.50
2023-01-29T16:25:05.904Z,1.53
2023-01-29T16:30:08.998Z,1.39
2023-01-29T16:35:17.947Z,1.23
2023-01-29T16:40:33.788Z,1.14
2023-01-29T16:45:36.957Z,1.33
2023-01-29T16:50:53.914Z,1.11
2023-01-29T16:56:07.396Z,1.15
2023-01-29T17:01:11.647Z,1.36
2023-01-29T17:20:28.741Z,1.72
2023-01-29T17:25:31.178Z,1.72
2023-01-29T17:30:37.416Z,1.55
2023-01-29T17:35:42.983Z,1.65
2023-01-29T17:40:56.869Z,1.71
2023-01-29T17:45:59.547Z,1.67
2023-01-29T17:51:04.820Z,1.38
2023-01-29T17:56:11.207Z,1.39
2023-01-29T18:01:13.868Z,1.09
2023-01-29T18:06:29.163Z,1.37
2023-01-29T18:11:31.899Z,0.99
2023-01-29T18:16:38.761Z,1.28
2023-01-29T18:21:41.891Z,1.36
2023-01-29T18:26:44.280Z,1.09
2023-01-29T18:31:49.693Z,1.13
2023-01-29T18:36:52.355Z,1.45
2023-01-29T18:41:54.663Z,1.16
2023-01-29T18:46:57.106Z,1.30
2023-01-29T18:51:59.557Z,1.40
2023-01-29T18:57:13.895Z,1.11
2023-01-29T19:02:24.559Z,1.44
2023-01-29T19:07:27.197Z,1.37
2023-01-29T19:12:29.529Z,1.13
2023-01-29T19:17:31.751Z,1.29
2023-01-29T19:22:34.182Z,1.34
2023-01-29T19:27:36.652Z,1.40
2023-01-29T19:32:40.038Z,1.28
2023-01-29T19:37:42.698Z,1.30
2023-01-29T19:42:45.121Z,1.18
2023-01-29T19:47:47.575Z,1.45
2023-01-29T19:52:51.817Z,1.55
2023-01-29T19:57:55.789Z,1.51
2023-01-29T20:02:58.105Z,1.10
2023-01-29T20:08:00.551Z,1.27
2023-01-29T20:13:02.843Z,1.51
2023-01-29T20:18:11.912Z,1.29
2023-01-29T20:23:36.628Z,1.53
2023-01-29T20:28:41.034Z,1.67
2023-01-29T20:33:44.776Z,1.44
2023-01-29T20:38:48.276Z,1.40
2023-01-29T20:43:50.735Z,1.31
2023-01-29T20:48:54.349Z,1.60
2023-01-29T20:53:57.931Z,1.24
2023-01-29T20:59:02.467Z,1.27
2023-01-29T21:04:04.929Z,0.95
2023-01-29T21:09:07.204Z,1.13
2023-01-29T21:14:09.337Z,1.26
2023-01-29T21:19:15.081Z,1.07
2023-01-29T21:24:19.064Z,1.05
2023-01-29T21:29:21.359Z,0.90
2023-01-29T21:34:23.756Z,0.98
2023-01-29T21:39:26.662Z,0.88
2023-01-29T21:44:29.283Z,0.98
2023-01-29T21:49:31.515Z,1.05
2023-01-29T21:54:35.688Z,0.90
2023-01-29T21:59:37.953Z,0.87
2023-01-29T22:04:41.112Z,0.88
2023-01-29T22:09:43.388Z,0.37
2023-01-29T22:14:47.526Z,0.41
2023-01-29T22:19:50.032Z,0.32
2023-01-29T22:24:52.916Z,0.08
2023-01-29T22:29:55.126Z,0.11
2023-01-29T22:34:57.176Z,0.16
2023-01-29T22:39:59.476Z,0.13
2023-01-29T22:45:01.629Z,0.07
2023-01-29T22:50:05.730Z,0.05
2023-01-29T22:55:10.625Z,-0.07
2023-01-29T23:00:13.295Z,0.14
2023-01-29T23:05:15.966Z,0.14
2023-01-29T23:10:21.260Z,-0.16
2023-01-29T23:15:23.495Z,-0.21
2023-01-29T23:20:25.653Z,-0.03
2023-01-29T23:25:47.839Z,-0.36
2023-01-29T23:30:52.269Z,-0.45
2023-01-29T23:35:54.937Z,-0.43
2023-01-29T23:40:58.345Z,-0.26
2023-01-29T23:46:00.513Z,-0.27
2023-01-29T23:51:02.882Z,-0.57
2023-01-29T23:56:06.571Z,-0.20
